createdAt,value
2022-08-08T00:00:54.070Z,5.03
2022-08-08T00:03:28.212Z,4.97
2022-08-08T00:06:35.228Z,5.45
2022-08-08T00:09:34.862Z,5.20
2022-08-08T00:12:31.673Z,5.33
2022-08-08T00:15:57.182Z,5.60
2022-08-08T00:18:50.484Z,5.27
2022-08-08T00:21:45.999Z,5.50
2022-08-08T00:24:43.155Z,5.03
2022-08-08T00:27:35.819Z,5.40
2022-08-08T00:30:31.266Z,5.20
2022-08-08T00:33:24.486Z,5.30
2022-08-08T00:36:44.867Z,5.77
2022-08-08T00:41:10.964Z,4.83
2022-08-08T00:43:40.314Z,5.33
2022-08-08T00:47:19.378Z,4.80
2022-08-08T00:50:52.390Z,5.90
2022-08-08T00:54:13.285Z,5.27
2022-08-08T00:57:34.586Z,5.30
2022-08-08T01:00:37.432Z,5.77
2022-08-08T01:04:09.021Z,5.43
2022-08-08T01:07:55.868Z,5.13
2022-08-08T01:11:35.059Z,5.13
2022-08-08T01:15:00.295Z,5.37
2022-08-08T01:18:52.750Z,5.25
2022-08-08T01:22:15.824Z,5.87
2022-08-08T01:25:40.082Z,5.30
2022-08-08T01:29:06.093Z,6.00
2022-08-08T01:32:33.447Z,6.67
2022-08-08T01:36:01.349Z,5.40
2022-08-08T01:39:20.150Z,5.60
2022-08-08T01:42:35.713Z,5.83
2022-08-08T01:45:56.438Z,5.15
2022-08-08T01:49:02.537Z,5.30
2022-08-08T01:54:00.721Z,5.60
2022-08-08T01:56:26.978Z,5.40
2022-08-08T01:58:53.248Z,5.30
2022-08-08T02:02:08.175Z,5.57
2022-08-08T02:05:26.401Z,5.30
2022-08-08T02:08:49.470Z,5.70
2022-08-08T02:11:58.940Z,5.73
2022-08-08T02:15:04.956Z,5.70
2022-08-08T02:18:10.644Z,5.20
2022-08-08T02:21:26.707Z,5.30
2022-08-08T02:24:23.924Z,6.03
2022-08-08T02:27:22.171Z,5.93
2022-08-08T02:30:21.722Z,6.23
2022-08-08T02:34:08.516Z,5.37
2022-08-08T02:37:06.124Z,5.20
2022-08-08T02:40:09.860Z,4.87
2022-08-08T02:44:38.863Z,5.10
2022-08-08T02:47:10.693Z,4.73
2022-08-08T02:50:36.602Z,4.75
2022-08-08T02:54:12.382Z,5.40
2022-08-08T02:57:40.473Z,5.30
2022-08-08T03:01:24.356Z,5.40
2022-08-08T03:05:05.047Z,5.77
2022-08-08T03:08:42.200Z,5.13
2022-08-08T03:12:16.210Z,5.83
2022-08-08T03:16:02.682Z,5.83
2022-08-08T03:18:47.990Z,5.47
2022-08-08T03:21:54.694Z,5.25
2022-08-08T03:24:45.231Z,5.50
2022-08-08T03:27:41.845Z,5.67
2022-08-08T03:30:32.180Z,4.87
2022-08-08T03:33:58.447Z,4.80
2022-08-08T03:36:40.024Z,5.30
2022-08-08T03:39:29.515Z,5.23
2022-08-08T03:42:29.870Z,4.90
2022-08-08T03:46:04.884Z,4.83
2022-08-08T03:49:56.324Z,5.03
2022-08-08T03:51:55.218Z,5.57
2022-08-08T03:55:02.303Z,4.70
2022-08-08T03:58:34.129Z,5.30
2022-08-08T04:01:24.743Z,5.33
2022-08-08T04:04:22.917Z,4.83
2022-08-08T04:07:21.158Z,5.25
2022-08-08T04:10:11.624Z,5.25
2022-08-08T04:13:08.273Z,5.07
2022-08-08T04:16:09.405Z,5.77
2022-08-08T04:19:02.685Z,5.20
2022-08-08T04:21:54.511Z,5.47
2022-08-08T04:24:44.908Z,5.03
2022-08-08T04:28:02.193Z,5.57
2022-08-08T04:30:50.478Z,4.97
2022-08-08T04:33:44.560Z,4.70
2022-08-08T04:36:34.335Z,5.80
2022-08-08T04:40:04.319Z,5.30
2022-08-08T04:42:34.646Z,5.67
2022-08-08T04:45:26.878Z,4.30
2022-08-08T04:48:17.129Z,5.23
2022-08-08T04:51:11.907Z,5.20
2022-08-08T04:54:38.484Z,4.63
2022-08-08T04:57:17.882Z,4.97
2022-08-08T05:00:12.918Z,5.40
2022-08-08T05:03:12.721Z,5.63
2022-08-08T05:06:12.697Z,5.17
2022-08-08T05:09:06.104Z,4.77
2022-08-08T05:11:59.089Z,4.93
2022-08-08T05:17:54.245Z,4.90
2022-08-08T05:20:50.146Z,4.97
2022-08-08T05:23:46.036Z,5.03
2022-08-08T05:26:36.707Z,5.57
2022-08-08T05:29:29.132Z,5.17
2022-08-08T05:32:19.338Z,5.10
2022-08-08T05:35:16.284Z,5.10
2022-08-08T05:38:31.584Z,5.35
2022-08-08T05:41:24.694Z,5.17
2022-08-08T05:44:19.724Z,5.70
2022-08-08T05:47:10.560Z,4.80
2022-08-08T05:50:09.863Z,4.90
2022-08-08T05:53:54.344Z,4.63
2022-08-08T05:56:15.296Z,4.40
2022-08-08T05:59:12.761Z,5.53
2022-08-08T06:02:29.156Z,5.63
2022-08-08T06:05:33.274Z,4.73
2022-08-08T06:08:34.774Z,4.60
2022-08-08T06:14:27.670Z,5.30
2022-08-08T06:17:20.499Z,5.08
2022-08-08T06:23:48.553Z,4.40
2022-08-08T06:26:35.908Z,5.10
2022-08-08T06:29:59.371Z,4.87
2022-08-08T06:32:55.287Z,5.25
2022-08-08T06:36:06.995Z,5.10
2022-08-08T06:39:02.059Z,5.40
2022-08-08T06:41:59.199Z,5.00
2022-08-08T06:45:05.504Z,4.83
2022-08-08T06:48:00.873Z,5.37
2022-08-08T06:50:53.638Z,4.57
2022-08-08T06:53:51.031Z,4.83
2022-08-08T06:56:52.709Z,4.80
2022-08-08T07:00:10.235Z,4.42
2022-08-08T07:02:57.701Z,5.50
2022-08-08T07:06:01.725Z,4.17
2022-08-08T07:08:57.505Z,4.77
2022-08-08T07:11:51.845Z,4.63
2022-08-08T07:14:46.344Z,4.40
2022-08-08T07:18:01.482Z,4.63
2022-08-08T07:20:57.406Z,5.03
2022-08-08T07:24:01.638Z,4.27
2022-08-08T07:27:16.626Z,4.23
2022-08-08T07:30:14.891Z,4.87
2022-08-08T07:33:11.353Z,4.27
2022-08-08T07:36:11.948Z,5.20
2022-08-08T07:39:06.394Z,4.33
2022-08-08T07:42:04.771Z,4.03
2022-08-08T07:44:58.697Z,5.00
2022-08-08T07:47:51.699Z,4.40
2022-08-08T07:50:43.301Z,4.30
2022-08-08T07:54:00.935Z,4.90
2022-08-08T07:57:01.854Z,3.60
2022-08-08T07:59:59.614Z,4.17
2022-08-08T08:03:02.234Z,4.60
2022-08-08T08:05:53.147Z,4.13
2022-08-08T08:08:50.192Z,4.13
2022-08-08T08:11:52.611Z,4.15
2022-08-08T08:14:54.159Z,3.90
2022-08-08T08:17:48.221Z,3.83
2022-08-08T08:20:43.090Z,3.90
2022-08-08T08:23:40.719Z,3.80
2022-08-08T08:26:31.948Z,3.60
2022-08-08T08:29:21.308Z,4.37
2022-08-08T08:32:11.308Z,3.70
2022-08-08T08:35:03.384Z,3.70
2022-08-08T08:38:14.512Z,3.90
2022-08-08T08:41:06.143Z,3.47
2022-08-08T08:44:13.748Z,3.87
2022-08-08T08:47:05.239Z,4.00
2022-08-08T08:49:57.480Z,3.73
2022-08-08T08:52:58.569Z,3.50
2022-08-08T08:55:51.258Z,3.83
2022-08-08T08:58:46.954Z,4.20
2022-08-08T09:01:53.514Z,4.47
2022-08-08T09:04:56.087Z,4.63
2022-08-08T09:07:52.449Z,3.33
2022-08-08T09:11:03.304Z,4.00
2022-08-08T09:13:53.665Z,3.43
2022-08-08T09:16:44.345Z,3.80
2022-08-08T09:21:58.981Z,3.53
2022-08-08T09:22:48.480Z,3.70
2022-08-08T09:28:45.040Z,3.40
2022-08-08T09:31:56.687Z,3.67
2022-08-08T09:35:11.678Z,3.70
2022-08-08T09:38:09.400Z,3.80
2022-08-08T09:41:10.240Z,3.60
2022-08-08T09:44:12.905Z,4.43
2022-08-08T09:47:25.906Z,3.23
2022-08-08T09:50:21.281Z,3.70
2022-08-08T09:53:31.873Z,4.07
2022-08-08T09:56:25.297Z,3.73
2022-08-08T10:00:02.153Z,3.43
2022-08-08T10:02:38.055Z,3.10
2022-08-08T10:05:34.873Z,3.50
2022-08-08T10:08:25.026Z,3.63
2022-08-08T10:12:26.574Z,3.22
2022-08-08T10:14:38.644Z,3.30
2022-08-08T10:17:57.161Z,3.72
2022-08-08T10:20:57.438Z,3.57
2022-08-08T10:23:58.974Z,3.73
2022-08-08T10:26:59.039Z,3.50
2022-08-08T10:29:59.904Z,4.00
2022-08-08T10:32:54.155Z,3.73
2022-08-08T10:36:07.547Z,3.33
2022-08-08T10:38:58.256Z,3.97
2022-08-08T10:42:12.981Z,5.20
2022-08-08T10:45:08.132Z,3.60
2022-08-08T10:48:00.779Z,3.63
2022-08-08T10:50:51.113Z,3.17
2022-08-08T10:53:56.368Z,3.42
2022-08-08T10:56:57.929Z,3.43
2022-08-08T10:59:54.334Z,3.00
2022-08-08T11:02:45.447Z,3.53
2022-08-08T11:05:41.404Z,3.30
2022-08-08T11:08:40.904Z,3.73
2022-08-08T11:12:04.906Z,2.70
2022-08-08T11:14:52.932Z,3.40
2022-08-08T11:18:00.335Z,3.13
2022-08-08T11:20:53.599Z,3.65
2022-08-08T11:24:02.286Z,3.43
2022-08-08T11:26:57.163Z,3.00
2022-08-08T11:30:18.550Z,3.00
2022-08-08T11:33:05.190Z,2.77
2022-08-08T11:36:02.253Z,3.57
2022-08-08T11:38:56.341Z,3.00
2022-08-08T11:41:47.660Z,3.50
2022-08-08T11:44:41.435Z,3.10
2022-08-08T11:47:39.643Z,2.70
2022-08-08T11:50:30.815Z,2.80
2022-08-08T11:53:24.365Z,3.00
2022-08-08T11:56:23.769Z,2.80
2022-08-08T11:59:13.464Z,3.10
2022-08-08T12:02:30.939Z,3.37
2022-08-08T12:05:18.222Z,2.77
2022-08-08T12:08:13.684Z,2.70
2022-08-08T12:11:04.739Z,3.00
2022-08-08T12:14:04.993Z,2.83
2022-08-08T12:16:57.209Z,2.83
2022-08-08T12:19:57.622Z,2.77
2022-08-08T12:22:52.656Z,2.67
2022-08-08T12:25:44.854Z,2.93
2022-08-08T12:28:45.407Z,3.50
2022-08-08T12:31:39.354Z,2.90
2022-08-08T12:34:45.593Z,3.80
2022-08-08T12:37:40.026Z,2.90
2022-08-08T12:40:54.399Z,3.73
2022-08-08T12:44:00.662Z,3.60
2022-08-08T12:47:01.120Z,2.80
2022-08-08T12:49:56.790Z,3.63
2022-08-08T12:52:54.513Z,3.93
2022-08-08T12:56:18.287Z,2.97
2022-08-08T12:59:17.691Z,4.10
2022-08-08T13:02:08.295Z,3.90
2022-08-08T13:05:00.792Z,2.90
2022-08-08T13:08:03.873Z,2.90
2022-08-08T13:10:58.059Z,3.17
2022-08-08T13:14:01.259Z,3.83
2022-08-08T13:16:52.276Z,2.97
2022-08-08T13:19:50.187Z,3.27
2022-08-08T13:23:08.098Z,3.00
2022-08-08T13:26:12.649Z,2.80
2022-08-08T13:29:10.008Z,2.83
2022-08-08T13:32:03.600Z,2.67
2022-08-08T13:34:55.461Z,3.00
2022-08-08T13:38:05.011Z,3.40
2022-08-08T13:40:55.251Z,3.03
2022-08-08T13:43:47.441Z,3.10
2022-08-08T13:46:36.646Z,3.02
2022-08-08T13:50:35.236Z,2.57
2022-08-08T13:52:46.053Z,3.33
2022-08-08T13:55:38.797Z,2.55
2022-08-08T13:58:29.085Z,2.90
2022-08-08T14:01:23.298Z,3.00
2022-08-08T14:04:24.970Z,3.47
2022-08-08T14:07:14.102Z,2.87
2022-08-08T14:10:11.906Z,3.10
2022-08-08T14:13:20.870Z,3.00
2022-08-08T14:16:21.534Z,2.33
2022-08-08T14:19:15.317Z,2.63
2022-08-08T14:22:25.813Z,2.23
2022-08-08T14:25:17.996Z,2.87
2022-08-08T14:28:12.837Z,2.80
2022-08-08T14:33:59.738Z,2.73
2022-08-08T14:36:53.331Z,2.80
2022-08-08T14:39:49.474Z,2.50
2022-08-08T14:42:54.794Z,2.73
2022-08-08T14:46:02.061Z,2.30
2022-08-08T14:48:59.078Z,2.53
2022-08-08T14:51:52.957Z,2.53
2022-08-08T14:54:48.848Z,2.90
2022-08-08T14:58:03.372Z,3.10
2022-08-08T15:00:50.184Z,2.77
2022-08-08T15:03:53.261Z,2.63
2022-08-08T15:06:44.500Z,2.63
2022-08-08T15:09:34.171Z,2.50
2022-08-08T15:12:34.793Z,3.00
2022-08-08T15:16:02.721Z,3.00
2022-08-08T15:18:33.615Z,2.60
2022-08-08T15:21:27.814Z,2.98
2022-08-08T15:24:19.933Z,2.80
2022-08-08T15:27:57.786Z,2.75
2022-08-08T15:30:19.974Z,2.90
2022-08-08T15:33:09.350Z,2.77
2022-08-08T15:36:04.050Z,3.20
2022-08-08T15:38:54.431Z,2.70
2022-08-08T15:41:46.045Z,3.10
2022-08-08T15:44:35.633Z,2.90
2022-08-08T15:47:27.618Z,3.10
2022-08-08T15:50:20.623Z,2.60
2022-08-08T15:53:10.085Z,2.37
2022-08-08T15:55:59.868Z,2.53
2022-08-08T15:58:49.368Z,2.83
2022-08-08T16:04:53.442Z,2.43
2022-08-08T16:07:52.098Z,2.55
2022-08-08T16:13:15.667Z,3.07
2022-08-08T16:13:53.231Z,3.13
2022-08-08T16:16:43.842Z,2.40
2022-08-08T16:19:59.658Z,2.87
2022-08-08T16:22:52.162Z,3.08
2022-08-08T16:25:46.414Z,2.67
2022-08-08T16:28:42.677Z,3.00
2022-08-08T16:31:31.915Z,2.93
2022-08-08T16:34:22.385Z,3.20
2022-08-08T16:37:16.245Z,2.90
2022-08-08T16:40:08.591Z,3.00
2022-08-08T16:43:01.200Z,2.60
2022-08-08T16:46:43.232Z,3.07
2022-08-08T16:49:01.654Z,3.63
2022-08-08T16:55:01.632Z,2.80
2022-08-08T16:55:53.403Z,2.90
2022-08-08T16:58:17.809Z,3.20
2022-08-08T17:01:11.131Z,3.97
2022-08-08T17:04:03.699Z,2.93
2022-08-08T17:06:52.963Z,2.80
2022-08-08T17:09:45.403Z,2.73
2022-08-08T17:12:36.567Z,3.37
2022-08-08T17:15:25.985Z,3.10
2022-08-08T17:18:24.950Z,3.17
2022-08-08T17:21:17.217Z,3.43
2022-08-08T17:24:10.629Z,3.23
2022-08-08T17:27:11.521Z,3.90
2022-08-08T17:30:01.712Z,3.20
2022-08-08T17:34:35.237Z,3.60
2022-08-08T17:36:11.509Z,3.53
2022-08-08T17:39:46.326Z,3.40
2022-08-08T17:42:19.270Z,3.10
2022-08-08T17:45:22.886Z,4.00
2022-08-08T17:48:14.997Z,3.10
2022-08-08T17:51:18.190Z,3.47
2022-08-08T17:54:13.860Z,3.30
2022-08-08T17:57:14.325Z,3.05
2022-08-08T18:00:04.703Z,3.23
2022-08-08T18:03:08.938Z,3.33
2022-08-08T18:06:03.133Z,3.13
2022-08-08T18:09:09.547Z,3.30
2022-08-08T18:12:00.279Z,4.40
2022-08-08T18:14:52.421Z,3.47
2022-08-08T18:18:09.882Z,3.80
2022-08-08T18:20:54.991Z,4.17
2022-08-08T18:23:55.715Z,4.37
2022-08-08T18:26:46.605Z,4.13
2022-08-08T18:29:44.420Z,4.27
2022-08-08T18:32:33.907Z,3.77
2022-08-08T18:35:23.030Z,4.17
2022-08-08T18:38:17.032Z,3.97
2022-08-08T18:41:09.136Z,4.20
2022-08-08T18:43:58.095Z,4.20
2022-08-08T18:46:54.478Z,4.58
2022-08-08T18:49:57.842Z,4.83
2022-08-08T18:52:51.893Z,4.40
2022-08-08T18:55:44.111Z,4.13
2022-08-08T18:58:35.667Z,4.43
2022-08-08T19:02:28.238Z,4.60
2022-08-08T19:04:35.703Z,5.40
2022-08-08T19:07:29.567Z,4.07
2022-08-08T19:10:20.197Z,4.03
2022-08-08T19:13:10.896Z,4.17
2022-08-08T19:19:09.944Z,4.30
2022-08-08T19:22:03.258Z,4.57
2022-08-08T19:28:02.332Z,4.80
2022-08-08T19:31:09.362Z,4.97
2022-08-08T19:34:29.737Z,4.57
2022-08-08T19:37:08.682Z,4.60
2022-08-08T19:40:16.220Z,4.70
2022-08-08T19:43:11.702Z,4.07
2022-08-08T19:46:01.264Z,4.23
2022-08-08T19:48:50.534Z,4.83
2022-08-08T19:51:43.639Z,4.33
2022-08-08T19:54:34.189Z,4.80
2022-08-08T19:57:25.050Z,4.87
2022-08-08T20:04:01.010Z,4.80
2022-08-08T20:06:27.995Z,5.20
2022-08-08T20:09:22.844Z,4.70
2022-08-08T20:12:14.118Z,4.07
2022-08-08T20:15:10.370Z,4.65
2022-08-08T20:18:15.581Z,5.13
2022-08-08T20:21:05.599Z,5.00
2022-08-08T20:23:58.001Z,5.00
2022-08-08T20:26:49.381Z,4.50
2022-08-08T20:29:56.028Z,4.15
2022-08-08T20:32:48.354Z,4.67
2022-08-08T20:35:57.897Z,4.73
2022-08-08T20:38:46.351Z,4.73
2022-08-08T20:41:39.403Z,4.50
2022-08-08T20:44:30.703Z,4.53
2022-08-08T20:47:23.234Z,4.78
2022-08-08T20:50:14.117Z,4.20
2022-08-08T20:53:03.026Z,4.10
2022-08-08T20:55:56.905Z,4.97
2022-08-08T20:58:47.559Z,4.30
2022-08-08T21:04:50.148Z,4.57
2022-08-08T21:08:07.734Z,4.20
2022-08-08T21:10:49.832Z,4.00
2022-08-08T21:13:40.692Z,4.30
2022-08-08T21:16:31.908Z,4.50
2022-08-08T21:19:21.012Z,4.30
2022-08-08T21:22:12.708Z,4.40
2022-08-08T21:25:02.414Z,4.00
2022-08-08T21:28:09.272Z,4.43
2022-08-08T21:31:05.834Z,3.70
2022-08-08T21:34:10.669Z,4.17
2022-08-08T21:37:11.376Z,4.17
2022-08-08T21:40:10.047Z,3.97
2022-08-08T21:43:00.687Z,4.50
2022-08-08T21:48:06.689Z,4.00
2022-08-08T21:48:58.338Z,4.10
2022-08-08T21:54:33.263Z,3.90
2022-08-08T21:55:01.847Z,4.10
2022-08-08T21:58:05.554Z,4.13
2022-08-08T22:00:57.115Z,4.20
2022-08-08T22:03:50.128Z,4.30
2022-08-08T22:06:41.590Z,4.43
2022-08-08T22:09:40.761Z,3.97
2022-08-08T22:12:30.782Z,4.43
2022-08-08T22:15:19.326Z,4.20
2022-08-08T22:18:12.462Z,4.13
2022-08-08T22:21:13.727Z,4.43
2022-08-08T22:24:07.302Z,4.37
2022-08-08T22:27:01.561Z,4.63
2022-08-08T22:29:59.192Z,4.07
2022-08-08T22:32:51.590Z,4.37
2022-08-08T22:36:04.719Z,4.80
2022-08-08T22:38:51.428Z,4.53
2022-08-08T22:41:39.974Z,4.73
2022-08-08T22:44:28.936Z,4.67
2022-08-08T22:47:21.991Z,5.17
2022-08-08T22:50:26.035Z,4.17
2022-08-08T22:54:29.194Z,4.77
2022-08-08T22:56:28.280Z,4.83
2022-08-08T22:59:19.113Z,4.67
2022-08-08T23:02:12.735Z,5.23
2022-08-08T23:05:07.562Z,4.63
2022-08-08T23:08:02.954Z,5.00
2022-08-08T23:10:52.980Z,5.00
2022-08-08T23:13:53.894Z,4.70
2022-08-08T23:16:59.126Z,4.30
2022-08-08T23:19:49.026Z,4.73
2022-08-08T23:22:43.235Z,4.70
2022-08-08T23:25:45.152Z,4.40
2022-08-08T23:28:38.564Z,5.13
2022-08-08T23:31:29.453Z,4.53
2022-08-08T23:34:29.262Z,4.60
2022-08-08T23:37:24.653Z,5.17
2022-08-08T23:40:14.303Z,4.97
2022-08-08T23:43:04.561Z,5.27
2022-08-08T23:49:05.465Z,5.27
2022-08-08T23:49:14.867Z,5.13
2022-08-08T23:52:08.698Z,5.10
2022-08-08T23:55:07.137Z,5.40
2022-08-08T23:58:03.613Z,5.33
